Time;durP1;ratioP1;P1;durP2;ratioP2;P2;SDS_P1;SDS_P2;PMS_P1;PMS_P2;Temp;Humidity;BMP_temperature;BMP_pressure;BME280_temperature;BME280_humidity;BME280_pressure;Samples;Min_cycle;Max_cycle;Signal;HPM_P1;HPM_P2
2021/12/25 00:00:49;;;;;;;8.70;2.80;;;8.90;99.90;;;;;;5028942;28;20423;-76
2021/12/25 00:03:18;;;;;;;3.40;3.07;;;8.80;99.90;;;;;;5030017;28;20423;-76
2021/12/25 00:05:45;;;;;;;2.97;2.50;;;8.80;99.90;;;;;;5029006;28;20415;-76
2021/12/25 00:08:11;;;;;;;4.83;2.80;;;8.90;99.90;;;;;;5029753;28;21299;-76
2021/12/25 00:10:37;;;;;;;3.57;2.90;;;8.80;99.90;;;;;;5028412;28;20440;-76
2021/12/25 00:13:02;;;;;;;2.13;2.00;;;8.90;99.90;;;;;;5029872;28;20419;-76
2021/12/25 00:15:28;;;;;;;3.03;2.83;;;8.90;99.90;;;;;;5028345;28;20188;-75
2021/12/25 00:17:54;;;;;;;2.87;2.63;;;8.90;99.90;;;;;;5029668;28;20334;-75
2021/12/25 00:20:20;;;;;;;2.63;2.43;;;9.00;99.90;;;;;;5029882;28;20286;-75
2021/12/25 00:22:45;;;;;;;2.63;2.43;;;8.90;99.90;;;;;;5029515;28;20451;-75
2021/12/25 00:25:12;;;;;;;3.10;2.43;;;8.90;99.90;;;;;;5029699;28;20215;-75
2021/12/25 00:27:56;;;;;;;4.30;2.50;;;8.90;99.90;;;;;;5029339;28;20288;-75
2021/12/25 00:30:38;;;;;;;2.10;2.00;;;8.90;99.90;;;;;;5029242;28;20473;-76
2021/12/25 00:33:19;;;;;;;3.40;1.87;;;8.90;99.90;;;;;;5013783;28;20438;-77
2021/12/25 00:35:46;;;;;;;2.10;1.80;;;8.90;99.90;;;;;;5029313;28;20436;-77
2021/12/25 00:38:11;;;;;;;3.03;2.73;;;8.90;99.90;;;;;;5027643;28;20566;-77
2021/12/25 00:40:37;;;;;;;1.90;1.80;;;8.90;99.90;;;;;;5027887;28;20529;-77
2021/12/25 00:43:03;;;;;;;2.00;1.90;;;8.90;99.90;;;;;;5028955;28;20288;-77
2021/12/25 00:45:28;;;;;;;2.20;2.00;;;8.90;99.90;;;;;;5029223;28;20188;-77
2021/12/25 00:47:54;;;;;;;2.10;1.90;;;8.90;99.90;;;;;;5027659;28;20673;-75
2021/12/25 00:50:20;;;;;;;2.00;1.90;;;9.00;99.90;;;;;;5029295;28;20209;-76
2021/12/25 00:52:45;;;;;;;1.90;1.80;;;8.90;99.90;;;;;;5029103;28;20263;-77
2021/12/25 00:55:11;;;;;;;2.13;1.93;;;8.90;99.90;;;;;;5027825;28;20280;-77
2021/12/25 00:57:38;;;;;;;2.50;1.93;;;9.00;99.90;;;;;;5029194;28;20631;-77
2021/12/25 01:00:09;;;;;;;1.80;1.70;;;9.00;99.90;;;;;;5028640;28;20472;-76
2021/12/25 01:02:36;;;;;;;2.20;2.03;;;9.00;99.90;;;;;;5026543;28;20416;-77
2021/12/25 01:05:02;;;;;;;2.53;2.33;;;9.00;99.90;;;;;;5026925;28;20423;-76
2021/12/25 01:07:28;;;;;;;2.60;2.40;;;8.90;99.90;;;;;;5028336;28;20450;-77
2021/12/25 01:09:54;;;;;;;2.40;1.90;;;8.80;99.90;;;;;;5028416;28;20432;-76
2021/12/25 01:12:19;;;;;;;2.50;2.30;;;8.80;99.90;;;;;;5028824;28;20205;-76
2021/12/25 01:14:51;;;;;;;1.63;1.53;;;8.60;99.90;;;;;;5028432;28;20274;-77
2021/12/25 01:26:07;;;;;;;1.40;1.30;;;8.80;99.90;;;;;;5015955;28;20443;-76
2021/12/25 01:38:57;;;;;;;1.07;0.97;;;8.90;99.90;;;;;;5028127;28;20573;-77
2021/12/25 01:41:56;;;;;;;1.60;1.50;;;8.90;99.90;;;;;;5028473;28;20471;-77
2021/12/25 01:49:43;;;;;;;1.80;1.70;;;8.70;99.90;;;;;;5027411;28;20430;-77
2021/12/25 01:52:08;;;;;;;1.23;1.13;;;8.70;99.90;;;;;;5028308;28;20447;-77
2021/12/25 01:54:34;;;;;;;1.50;1.10;;;8.60;99.90;;;;;;5026987;28;20987;-76
2021/12/25 01:57:00;;;;;;;0.80;0.80;;;8.70;99.90;;;;;;5028822;28;20677;-76
2021/12/25 01:59:26;;;;;;;1.17;1.07;;;8.80;99.90;;;;;;5029130;28;21022;-77
2021/12/25 02:01:52;;;;;;;1.40;1.03;;;8.80;99.90;;;;;;5029305;28;20427;-77
2021/12/25 02:04:18;;;;;;;1.23;1.13;;;8.90;99.90;;;;;;5027726;28;20525;-77
2021/12/25 02:06:44;;;;;;;1.20;0.93;;;8.90;99.90;;;;;;5028673;28;20965;-76
2021/12/25 02:09:10;;;;;;;1.20;1.10;;;8.90;99.90;;;;;;5028748;28;20212;-76
2021/12/25 02:11:36;;;;;;;1.40;1.03;;;8.90;99.90;;;;;;5028209;28;20579;-76
2021/12/25 02:14:02;;;;;;;1.30;1.20;;;8.80;99.90;;;;;;5026961;28;20812;-77
2021/12/25 02:16:38;;;;;;;2.00;1.30;;;8.80;99.90;;;;;;5030320;28;21060;-77
2021/12/25 02:19:10;;;;;;;1.97;1.50;;;8.80;99.90;;;;;;5031746;28;20466;-76
2021/12/25 02:21:38;;;;;;;1.97;1.00;;;8.70;99.90;;;;;;5030161;28;20427;-76
2021/12/25 02:24:06;;;;;;;1.83;1.63;;;8.70;99.90;;;;;;5030176;28;20515;-76
2021/12/25 02:26:32;;;;;;;1.40;1.30;;;8.70;99.90;;;;;;5031586;28;20430;-76
2021/12/25 02:28:58;;;;;;;3.33;1.73;;;8.70;99.90;;;;;;5031579;28;20448;-76
2021/12/25 02:31:24;;;;;;;3.10;1.30;;;8.60;99.90;;;;;;5031639;28;20423;-76
2021/12/25 02:33:50;;;;;;;1.20;1.10;;;8.70;99.90;;;;;;5032006;28;20223;-77
2021/12/25 02:36:17;;;;;;;3.07;1.43;;;8.70;99.90;;;;;;5031708;28;20319;-77
2021/12/25 02:38:43;;;;;;;2.73;1.47;;;8.70;99.90;;;;;;5013434;28;21020;-76
2021/12/25 02:41:09;;;;;;;2.23;2.03;;;8.80;99.90;;;;;;5031326;28;20427;-77
2021/12/25 02:43:35;;;;;;;2.17;1.97;;;8.80;99.90;;;;;;5029893;28;21021;-76
2021/12/25 02:46:03;;;;;;;4.30;2.30;;;8.80;99.90;;;;;;5031516;28;20547;-77
2021/12/25 02:48:30;;;;;;;2.50;2.30;;;8.90;99.90;;;;;;5031285;28;21218;-77
2021/12/25 02:50:56;;;;;;;5.40;2.50;;;8.80;99.90;;;;;;5029533;28;20879;-78
2021/12/25 02:53:23;;;;;;;2.70;2.27;;;8.80;99.90;;;;;;5029757;28;20430;-77
2021/12/25 02:55:48;;;;;;;3.07;2.40;;;8.80;99.90;;;;;;5031203;28;20477;-76
2021/12/25 02:58:19;;;;;;;3.00;2.40;;;8.80;99.90;;;;;;5031045;28;20518;-78
2021/12/25 03:00:49;;;;;;;6.93;3.30;;;8.80;99.90;;;;;;5031280;28;20175;-77
2021/12/25 03:03:15;;;;;;;3.50;3.20;;;8.80;99.90;;;;;;5030904;28;20422;-77
2021/12/25 03:05:40;;;;;;;3.60;2.80;;;8.70;99.90;;;;;;5030845;28;20446;-77
2021/12/25 03:08:09;;;;;;;2.90;2.60;;;8.70;99.90;;;;;;5030956;28;20936;-77
2021/12/25 03:10:36;;;;;;;3.63;2.80;;;8.70;99.90;;;;;;5029398;28;20729;-76
2021/12/25 03:15:45;;;;;;;2.93;2.67;;;8.60;99.90;;;;;;5030747;28;20499;-77
2021/12/25 03:18:34;;;;;;;3.23;2.63;;;8.70;99.90;;;;;;5030852;28;20543;-77
2021/12/25 03:21:03;;;;;;;5.00;2.70;;;8.70;99.90;;;;;;5030775;28;20507;-77
2021/12/25 03:23:29;;;;;;;2.57;2.33;;;8.60;99.90;;;;;;5031005;28;20971;-77
2021/12/25 03:25:58;;;;;;;3.90;2.30;;;8.70;99.90;;;;;;5028995;28;20464;-76
2021/12/25 03:28:30;;;;;;;2.47;2.23;;;8.70;99.90;;;;;;5029369;28;20423;-77
2021/12/25 03:31:00;;;;;;;3.90;1.97;;;8.60;99.90;;;;;;5029763;28;20848;-77
2021/12/25 03:33:27;;;;;;;2.13;2.03;;;8.70;99.90;;;;;;5030490;28;20947;-77
2021/12/25 03:35:53;;;;;;;1.93;1.80;;;8.70;99.90;;;;;;5031543;28;20408;-77
2021/12/25 03:38:21;;;;;;;1.90;1.80;;;8.60;99.90;;;;;;5031544;28;20465;-77
2021/12/25 03:40:49;;;;;;;1.70;1.60;;;8.60;99.90;;;;;;5013838;28;20430;-77
2021/12/25 03:43:15;;;;;;;1.83;1.60;;;8.60;99.90;;;;;;5031194;28;20426;-77
2021/12/25 03:45:41;;;;;;;2.30;1.67;;;8.50;99.90;;;;;;5031304;28;20545;-77
2021/12/25 03:58:56;;;;;;;4.33;1.80;;;8.60;99.90;;;;;;5030388;28;20596;-76
2021/12/25 04:01:42;;;;;;;2.60;1.70;;;8.60;99.90;;;;;;5029068;28;20416;-76
2021/12/25 04:07:18;;;;;;;2.20;1.90;;;8.60;99.90;;;;;;5028313;28;20420;-78
2021/12/25 04:09:45;;;;;;;1.87;1.77;;;8.50;99.90;;;;;;5035276;28;20434;-78
2021/12/25 04:12:12;;;;;;;1.60;1.50;;;8.50;99.90;;;;;;5031609;28;20554;-78
2021/12/25 04:14:39;;;;;;;1.40;1.20;;;8.50;99.90;;;;;;5032098;28;20430;-78
2021/12/25 04:17:05;;;;;;;3.83;2.17;;;8.50;99.90;;;;;;5031955;28;20423;-77
2021/12/25 04:19:31;;;;;;;1.67;1.57;;;8.50;99.90;;;;;;5031395;28;20473;-77
2021/12/25 04:22:04;;;;;;;2.37;2.17;;;8.60;99.90;;;;;;5031596;28;20415;-77
2021/12/25 04:24:33;;;;;;;3.80;2.20;;;8.80;99.90;;;;;;5031977;28;20415;-77
2021/12/25 04:26:59;;;;;;;2.50;2.30;;;8.80;99.90;;;;;;5013159;28;20432;-76
2021/12/25 05:02:09;;;;;;;14.10;9.90;;;7.70;99.90;;;;;;5029514;28;20418;-75
2021/12/25 05:05:00;;;;;;;11.67;8.30;;;7.60;99.90;;;;;;5029154;28;20424;-76
2021/12/25 05:07:20;;;;;;;13.67;9.03;;;7.60;99.90;;;;;;5028460;28;20816;-76
2021/12/25 05:09:46;;;;;;;10.00;7.83;;;7.50;99.90;;;;;;5029779;28;20419;-74
2021/12/25 05:12:12;;;;;;;9.40;7.23;;;7.50;99.90;;;;;;5028874;28;20661;-74
2021/12/25 05:14:39;;;;;;;10.80;7.70;;;7.60;99.90;;;;;;5029017;28;20191;-76
2021/12/25 05:17:06;;;;;;;12.37;8.17;;;7.60;99.90;;;;;;5028900;28;20642;-76
2021/12/25 05:19:32;;;;;;;16.10;8.90;;;7.70;99.90;;;;;;5028760;28;20463;-76
2021/12/25 05:21:58;;;;;;;8.97;7.33;;;7.70;99.90;;;;;;5028466;28;20497;-77
2021/12/25 05:24:23;;;;;;;9.57;7.83;;;7.80;99.90;;;;;;5028779;28;20524;-77
2021/12/25 05:26:49;;;;;;;9.33;7.27;;;7.80;99.90;;;;;;5026981;28;20180;-77
2021/12/25 05:29:23;;;;;;;11.77;7.10;;;7.80;99.90;;;;;;5027473;28;20426;-77
2021/12/25 05:31:48;;;;;;;10.47;6.80;;;7.80;99.90;;;;;;5027375;28;20215;-77
2021/12/25 05:34:14;;;;;;;8.60;6.20;;;7.80;99.90;;;;;;5028459;28;20526;-75
2021/12/25 05:36:40;;;;;;;8.90;6.50;;;7.90;99.90;;;;;;5028701;28;20182;-76
2021/12/25 05:39:09;;;;;;;7.40;6.17;;;7.70;99.90;;;;;;5028611;28;20217;-77
2021/12/25 05:41:35;;;;;;;7.73;5.60;;;8.00;99.90;;;;;;5027182;28;20244;-76
2021/12/25 05:44:01;;;;;;;6.87;5.10;;;8.00;99.90;;;;;;5028400;28;20505;-76
2021/12/25 05:46:27;;;;;;;30.77;15.90;;;8.10;99.90;;;;;;5028600;28;20414;-76
2021/12/25 05:48:52;;;;;;;11.40;6.20;;;8.10;99.90;;;;;;5027108;28;20232;-76
2021/12/25 05:51:19;;;;;;;5.73;5.00;;;8.20;99.90;;;;;;5032181;28;20501;-77
2021/12/25 05:53:46;;;;;;;6.00;4.27;;;8.20;99.90;;;;;;5033337;28;20184;-77
2021/12/25 05:56:12;;;;;;;5.73;4.50;;;8.30;99.90;;;;;;5032146;28;20426;-76
2021/12/25 05:58:38;;;;;;;4.53;3.70;;;8.30;99.90;;;;;;5015523;28;20443;-77
2021/12/25 06:01:05;;;;;;;6.23;4.40;;;8.40;99.90;;;;;;5033115;28;20412;-77
2021/12/25 06:03:31;;;;;;;5.97;4.57;;;8.40;99.90;;;;;;5031560;28;20894;-77
2021/12/25 06:05:57;;;;;;;5.37;4.77;;;8.20;99.90;;;;;;5033135;28;20418;-77
2021/12/25 06:08:24;;;;;;;7.00;5.80;;;8.20;99.90;;;;;;5032965;28;20434;-76
2021/12/25 06:10:50;;;;;;;5.90;4.60;;;8.20;99.90;;;;;;5032804;28;20422;-77
2021/12/25 06:13:19;;;;;;;5.40;4.07;;;8.20;99.90;;;;;;5033442;28;20411;-77
2021/12/25 06:15:45;;;;;;;5.20;4.20;;;8.20;99.90;;;;;;5032858;28;20173;-76
2021/12/25 06:18:11;;;;;;;7.20;4.43;;;8.20;99.90;;;;;;5032655;28;20443;-77
2021/12/25 06:20:38;;;;;;;5.60;3.87;;;8.20;99.90;;;;;;5032693;28;20999;-77
2021/12/25 06:23:04;;;;;;;2.63;2.43;;;8.20;99.90;;;;;;5032304;28;20419;-77
2021/12/25 06:25:29;;;;;;;6.43;3.50;;;8.20;99.90;;;;;;5035406;28;20899;-79
2021/12/25 06:27:56;;;;;;;4.77;3.63;;;8.30;99.90;;;;;;5036246;28;20282;-79
2021/12/25 06:30:21;;;;;;;2.80;2.60;;;8.30;99.90;;;;;;5036024;28;20649;-78
2021/12/25 06:32:47;;;;;;;6.50;3.43;;;8.30;99.90;;;;;;5038403;28;20499;-77
2021/12/25 06:35:13;;;;;;;4.77;3.60;;;8.30;99.90;;;;;;5019288;28;20199;-77
2021/12/25 06:37:45;;;;;;;3.57;3.27;;;8.30;99.90;;;;;;5036007;28;20299;-77
2021/12/25 06:40:16;;;;;;;3.17;2.87;;;8.30;99.90;;;;;;5034967;28;20229;-78
2021/12/25 06:42:42;;;;;;;4.37;3.50;;;8.40;99.90;;;;;;5036510;28;20870;-78
2021/12/25 06:45:08;;;;;;;5.13;3.23;;;8.30;99.90;;;;;;5036284;28;20485;-79
2021/12/25 06:47:34;;;;;;;3.60;3.30;;;8.20;99.90;;;;;;5034522;28;20239;-78
2021/12/25 06:49:59;;;;;;;3.83;3.43;;;8.30;99.90;;;;;;5035676;28;20455;-79
2021/12/25 06:52:25;;;;;;;3.63;3.03;;;8.30;99.90;;;;;;5018453;28;20581;-77
2021/12/25 06:54:51;;;;;;;3.40;3.00;;;8.40;99.90;;;;;;5033904;28;20297;-77
2021/12/25 06:57:18;;;;;;;3.37;3.07;;;8.50;99.90;;;;;;5034148;28;20212;-77
2021/12/25 06:59:43;;;;;;;3.83;3.50;;;8.60;99.90;;;;;;5031664;28;20207;-77
2021/12/25 07:02:09;;;;;;;6.10;2.90;;;8.70;99.90;;;;;;5032070;28;20415;-77
2021/12/25 07:04:35;;;;;;;3.23;2.87;;;8.80;99.90;;;;;;5033341;28;20415;-76
2021/12/25 07:07:00;;;;;;;6.23;3.20;;;8.80;99.90;;;;;;5032918;28;20568;-76
2021/12/25 07:09:26;;;;;;;6.17;3.50;;;8.90;99.90;;;;;;5033086;28;20193;-78
2021/12/25 07:11:52;;;;;;;6.10;3.17;;;8.90;99.90;;;;;;5032990;28;20189;-77
2021/12/25 07:14:17;;;;;;;3.87;3.47;;;9.00;99.90;;;;;;5031735;28;20218;-76
2021/12/25 07:16:43;;;;;;;6.37;3.10;;;9.00;99.90;;;;;;5029572;28;20199;-76
2021/12/25 07:19:12;;;;;;;3.23;2.50;;;9.00;99.90;;;;;;5030882;28;20693;-76
2021/12/25 07:21:38;;;;;;;4.23;3.20;;;9.10;99.90;;;;;;5032528;28;20239;-75
2021/12/25 07:24:05;;;;;;;3.10;2.60;;;9.10;99.90;;;;;;5031321;28;20427;-75
2021/12/25 07:26:30;;;;;;;4.27;3.00;;;9.10;99.90;;;;;;5029335;28;20456;-77
2021/12/25 07:28:56;;;;;;;5.67;3.27;;;9.10;99.90;;;;;;5030475;28;20932;-76
2021/12/25 07:31:22;;;;;;;3.00;2.50;;;9.10;99.90;;;;;;5030806;28;20340;-76
2021/12/25 07:33:48;;;;;;;4.07;3.10;;;9.20;99.90;;;;;;5030731;28;20192;-76
2021/12/25 07:36:14;;;;;;;3.30;3.00;;;9.20;99.90;;;;;;5030999;28;20188;-77
2021/12/25 07:38:40;;;;;;;4.00;2.90;;;9.20;99.90;;;;;;5029426;28;20481;-76
2021/12/25 07:41:06;;;;;;;7.20;3.10;;;9.30;99.90;;;;;;5030470;28;20252;-76
2021/12/25 07:43:32;;;;;;;4.53;2.90;;;9.30;99.90;;;;;;5030306;28;20920;-76
2021/12/25 07:45:57;;;;;;;2.87;2.57;;;9.30;99.90;;;;;;5030893;28;20419;-76
2021/12/25 07:48:25;;;;;;;4.40;3.30;;;9.30;99.90;;;;;;5030198;28;20530;-75
2021/12/25 07:50:52;;;;;;;4.17;3.40;;;9.40;99.90;;;;;;5030234;28;21027;-76
2021/12/25 07:53:18;;;;;;;3.30;3.00;;;9.40;99.90;;;;;;5030224;28;20423;-76
2021/12/25 07:55:47;;;;;;;4.23;3.37;;;9.30;99.90;;;;;;5030183;28;20431;-76
2021/12/25 07:58:14;;;;;;;4.17;2.67;;;9.30;99.90;;;;;;5029685;28;20443;-76
2021/12/25 08:00:39;;;;;;;3.57;3.10;;;9.30;99.90;;;;;;5028279;28;21017;-76
2021/12/25 08:03:06;;;;;;;6.77;3.30;;;9.30;99.90;;;;;;5028450;28;20431;-75
2021/12/25 08:05:33;;;;;;;3.50;2.93;;;9.30;99.90;;;;;;5028607;28;20200;-75
2021/12/25 08:07:58;;;;;;;6.40;3.50;;;9.30;99.90;;;;;;5029687;28;20435;-76
2021/12/25 08:10:24;;;;;;;3.87;3.37;;;9.20;99.90;;;;;;5029724;28;20792;-77
2021/12/25 08:12:53;;;;;;;5.17;3.43;;;9.20;99.90;;;;;;5028314;28;20275;-76
2021/12/25 08:15:22;;;;;;;7.07;3.50;;;9.10;99.90;;;;;;5011806;28;20431;-77
2021/12/25 08:17:48;;;;;;;4.30;3.90;;;9.00;99.90;;;;;;5028061;28;20447;-77
2021/12/25 08:20:15;;;;;;;8.33;3.60;;;9.00;99.90;;;;;;5029385;28;20978;-77
2021/12/25 08:22:41;;;;;;;6.90;4.60;;;9.10;99.90;;;;;;5029713;28;20508;-77
2021/12/25 08:25:09;;;;;;;4.67;4.20;;;9.10;99.90;;;;;;5029457;28;20424;-76
2021/12/25 08:27:35;;;;;;;6.00;4.30;;;9.00;99.90;;;;;;5029552;28;20462;-77
2021/12/25 08:30:08;;;;;;;4.93;4.10;;;9.00;99.90;;;;;;5029289;28;20429;-76
2021/12/25 08:32:34;;;;;;;6.87;4.27;;;9.00;99.90;;;;;;5029443;28;20450;-76
2021/12/25 08:35:00;;;;;;;4.63;3.60;;;8.90;99.90;;;;;;5029451;28;20427;-77
2021/12/25 08:37:26;;;;;;;6.00;4.47;;;8.90;99.90;;;;;;5029651;28;20941;-76
2021/12/25 08:39:53;;;;;;;8.20;4.70;;;8.80;99.90;;;;;;5027940;28;20235;-76
2021/12/25 08:42:22;;;;;;;5.70;4.70;;;8.80;99.90;;;;;;5029600;28;20473;-76
2021/12/25 08:47:30;;;;;;;6.33;3.93;;;8.80;99.90;;;;;;5029319;28;20431;-75
2021/12/25 08:49:57;;;;;;;5.63;4.27;;;8.80;99.90;;;;;;5029744;28;20431;-77
2021/12/25 08:52:25;;;;;;;5.33;4.07;;;8.70;99.90;;;;;;5029563;28;20436;-77
2021/12/25 08:54:51;;;;;;;10.20;5.03;;;8.80;99.90;;;;;;5029876;28;20436;-77
2021/12/25 08:57:19;;;;;;;6.30;4.50;;;8.80;99.90;;;;;;5029799;28;20542;-77
2021/12/25 08:59:46;;;;;;;7.03;4.37;;;8.70;99.90;;;;;;5030008;28;20569;-76
2021/12/25 09:02:15;;;;;;;5.30;4.53;;;8.80;99.90;;;;;;5028796;28;20507;-76
2021/12/25 09:04:43;;;;;;;10.87;4.60;;;8.80;99.90;;;;;;5029936;28;20433;-76
2021/12/25 09:07:10;;;;;;;6.13;4.33;;;8.70;99.90;;;;;;5028439;28;20434;-76
2021/12/25 09:09:36;;;;;;;7.00;4.20;;;8.70;99.90;;;;;;5029779;28;20506;-76
2021/12/25 09:12:03;;;;;;;6.70;5.10;;;8.70;99.90;;;;;;5029577;28;20510;-76
2021/12/25 09:14:28;;;;;;;8.93;4.77;;;8.70;99.90;;;;;;5028903;28;20430;-77
2021/12/25 09:16:55;;;;;;;7.60;4.60;;;8.70;99.90;;;;;;5027669;28;20431;-77
2021/12/25 09:19:20;;;;;;;5.73;4.20;;;8.80;99.90;;;;;;5027636;28;20311;-77
2021/12/25 09:21:46;;;;;;;8.80;4.70;;;8.70;99.90;;;;;;5027705;28;20582;-76
2021/12/25 09:24:12;;;;;;;9.03;5.03;;;8.70;99.90;;;;;;5026880;28;20196;-76
2021/12/25 09:26:37;;;;;;;14.97;11.27;;;8.80;99.90;;;;;;5027753;28;20186;-76
2021/12/25 09:29:04;;;;;;;7.30;4.90;;;8.80;99.90;;;;;;5027492;28;20252;-76
2021/12/25 09:31:30;;;;;;;6.60;5.57;;;8.80;99.90;;;;;;5027482;28;20187;-76
2021/12/25 09:33:56;;;;;;;8.27;4.83;;;8.80;99.90;;;;;;5027370;28;20427;-76
2021/12/25 09:36:22;;;;;;;7.47;4.50;;;8.80;99.90;;;;;;5027146;28;20429;-75
2021/12/25 09:38:49;;;;;;;6.53;4.90;;;8.80;99.90;;;;;;5037255;28;20447;-77
2021/12/25 09:41:16;;;;;;;7.90;5.20;;;8.80;99.90;;;;;;5036362;28;20517;-77
2021/12/25 09:43:46;;;;;;;5.10;4.30;;;8.80;99.90;;;;;;5027121;28;20507;-76
2021/12/25 09:46:12;;;;;;;5.50;4.57;;;8.80;99.90;;;;;;5026038;28;20419;-76
2021/12/25 09:48:38;;;;;;;6.80;5.10;;;8.80;99.90;;;;;;5027353;28;20536;-76
2021/12/25 09:51:04;;;;;;;5.10;4.60;;;8.80;99.90;;;;;;5025242;28;20286;-76
2021/12/25 09:53:31;;;;;;;6.97;4.70;;;8.90;99.90;;;;;;5025291;28;20476;-76
2021/12/25 09:55:57;;;;;;;6.93;4.90;;;8.80;99.90;;;;;;5010040;28;21008;-78
2021/12/25 09:58:23;;;;;;;5.87;4.33;;;8.90;99.90;;;;;;5025199;28;20453;-77
2021/12/25 10:00:51;;;;;;;7.50;5.23;;;8.90;99.90;;;;;;5027033;28;20216;-77
2021/12/25 10:03:17;;;;;;;8.23;4.40;;;8.90;99.90;;;;;;5026763;28;20180;-77
2021/12/25 10:05:48;;;;;;;4.77;3.90;;;8.90;99.90;;;;;;5025557;28;20423;-77
2021/12/25 10:08:20;;;;;;;5.17;4.17;;;8.90;99.90;;;;;;5026712;28;20447;-77
2021/12/25 10:10:59;;;;;;;4.97;4.00;;;9.00;99.90;;;;;;5026797;28;20954;-77
2021/12/25 10:13:30;;;;;;;7.20;3.83;;;9.00;99.90;;;;;;5027000;28;20583;-77
2021/12/25 10:16:17;;;;;;;4.53;3.67;;;9.00;99.90;;;;;;5026864;28;20424;-76
2021/12/25 10:18:43;;;;;;;5.37;3.53;;;9.00;99.90;;;;;;5026596;28;20435;-76
2021/12/25 10:21:17;;;;;;;3.10;2.80;;;9.10;99.90;;;;;;5026843;28;21021;-76
2021/12/25 10:23:43;;;;;;;7.20;3.47;;;9.10;99.90;;;;;;5027773;28;20414;-78
2021/12/25 10:26:09;;;;;;;4.30;3.20;;;9.10;99.90;;;;;;5029200;28;20451;-77
2021/12/25 10:28:37;;;;;;;5.23;3.60;;;9.10;99.90;;;;;;5026632;28;20945;-76
2021/12/25 10:31:07;;;;;;;4.53;3.50;;;9.20;99.90;;;;;;5025376;28;20204;-76
2021/12/25 10:33:41;;;;;;;7.20;4.70;;;9.20;99.90;;;;;;5026764;28;21070;-76
2021/12/25 10:36:09;;;;;;;3.83;3.43;;;9.20;99.90;;;;;;5028738;28;20426;-76
2021/12/25 10:38:36;;;;;;;7.33;4.03;;;9.20;99.90;;;;;;5030105;28;20431;-77
2021/12/25 10:41:20;;;;;;;3.50;2.97;;;9.20;99.90;;;;;;5030378;28;20431;-77
2021/12/25 10:43:48;;;;;;;6.10;3.50;;;9.20;99.90;;;;;;5030031;28;20495;-75
2021/12/25 10:46:14;;;;;;;3.93;3.00;;;9.20;99.90;;;;;;5030123;28;20868;-75
2021/12/25 10:48:40;;;;;;;3.87;3.23;;;9.30;99.90;;;;;;5030188;28;20436;-75
2021/12/25 10:51:21;;;;;;;5.10;3.07;;;9.20;99.90;;;;;;5030641;28;20441;-75
2021/12/25 10:53:51;;;;;;;5.10;3.43;;;9.30;99.90;;;;;;5030252;28;20184;-75
2021/12/25 10:56:19;;;;;;;3.10;2.80;;;9.30;99.90;;;;;;5029952;28;20517;-75
2021/12/25 10:58:45;;;;;;;2.87;2.57;;;9.30;99.90;;;;;;5029691;28;20489;-76
2021/12/25 11:01:14;;;;;;;5.40;2.80;;;9.30;99.90;;;;;;5029844;28;20526;-74
2021/12/25 11:03:43;;;;;;;3.50;3.07;;;9.30;99.90;;;;;;5029256;28;20433;-77
2021/12/25 11:06:18;;;;;;;3.93;2.90;;;9.30;99.90;;;;;;5011817;28;20435;-76
2021/12/25 11:08:45;;;;;;;3.00;2.50;;;9.30;99.90;;;;;;5028321;28;20542;-76
2021/12/25 11:11:15;;;;;;;4.23;3.33;;;9.30;99.90;;;;;;5029930;28;20453;-77
2021/12/25 11:13:42;;;;;;;4.07;3.27;;;9.30;99.90;;;;;;5029634;28;20908;-75
2021/12/25 11:19:27;;;;;;;4.30;3.23;;;9.30;99.90;;;;;;5024245;28;20476;-75
2021/12/25 11:21:54;;;;;;;3.10;2.90;;;9.30;99.90;;;;;;5029712;28;20423;-75
2021/12/25 11:24:25;;;;;;;6.73;3.13;;;9.30;99.90;;;;;;5029296;28;20421;-75
2021/12/25 11:27:06;;;;;;;5.30;2.87;;;9.30;99.90;;;;;;5029591;28;20447;-75
2021/12/25 11:29:37;;;;;;;4.43;2.77;;;9.40;99.90;;;;;;5029202;28;20432;-75
2021/12/25 11:32:05;;;;;;;3.47;2.70;;;9.40;99.90;;;;;;5029028;28;20503;-75
2021/12/25 11:34:31;;;;;;;2.57;2.37;;;9.40;99.90;;;;;;5028883;28;20432;-75
2021/12/25 11:37:00;;;;;;;4.70;2.73;;;9.40;99.90;;;;;;5029664;28;20423;-76
2021/12/25 11:39:27;;;;;;;3.00;2.53;;;9.40;99.90;;;;;;5028923;28;20316;-75
2021/12/25 11:41:57;;;;;;;2.90;2.70;;;9.40;99.90;;;;;;5029021;28;20419;-75
2021/12/25 11:44:39;;;;;;;4.13;3.07;;;9.60;99.90;;;;;;5027522;28;20423;-76
2021/12/25 11:47:07;;;;;;;2.90;2.57;;;9.60;99.90;;;;;;5028634;28;20884;-75
2021/12/25 11:49:50;;;;;;;3.67;2.70;;;9.70;99.90;;;;;;5028746;28;20752;-75
2021/12/25 11:52:22;;;;;;;5.30;3.13;;;9.80;99.90;;;;;;5029033;28;20448;-75
2021/12/25 11:57:50;;;;;;;3.57;3.27;;;10.00;99.90;;;;;;5029053;28;20450;-75
2021/12/25 12:00:33;;;;;;;3.27;2.73;;;9.90;99.90;;;;;;5027457;28;20470;-75
2021/12/25 12:02:58;;;;;;;4.10;3.70;;;9.90;99.90;;;;;;5028934;28;20454;-75
2021/12/25 12:05:32;;;;;;;3.13;2.83;;;9.80;99.90;;;;;;5028950;28;20451;-76
2021/12/25 12:07:59;;;;;;;7.73;4.20;;;9.80;99.90;;;;;;5028917;28;20472;-76
2021/12/25 12:10:44;;;;;;;3.53;3.17;;;9.80;99.90;;;;;;5027456;28;20878;-76
2021/12/25 12:13:15;;;;;;;3.60;3.30;;;9.70;99.90;;;;;;5028768;28;20792;-75
2021/12/25 12:15:51;;;;;;;3.50;3.00;;;9.70;99.90;;;;;;5029109;28;20512;-75
2021/12/25 12:18:30;;;;;;;6.00;2.67;;;9.80;99.90;;;;;;5028781;28;20447;-75
2021/12/25 12:21:17;;;;;;;3.03;2.77;;;9.90;99.90;;;;;;5028824;28;20978;-75
2021/12/25 12:26:45;;;;;;;3.23;2.70;;;9.80;99.90;;;;;;5028777;28;20412;-76
2021/12/25 12:29:12;;;;;;;1.70;1.60;;;9.80;99.90;;;;;;5028646;28;21144;-75
2021/12/25 12:31:46;;;;;;;3.03;2.60;;;9.80;99.90;;;;;;5028678;28;20469;-76
2021/12/25 12:34:29;;;;;;;3.03;2.50;;;9.80;99.90;;;;;;5028439;28;20909;-75
2021/12/25 12:37:13;;;;;;;4.47;2.73;;;9.80;99.90;;;;;;5028780;28;20554;-77
2021/12/25 12:40:04;;;;;;;3.20;2.20;;;9.70;99.90;;;;;;5028548;28;20460;-76
2021/12/25 12:42:53;;;;;;;3.77;2.93;;;9.70;99.90;;;;;;5020050;28;20515;-76
2021/12/25 12:45:25;;;;;;;3.30;3.00;;;9.70;99.90;;;;;;5029613;28;20415;-75
2021/12/25 12:48:21;;;;;;;3.10;2.50;;;9.70;99.90;;;;;;5029042;28;20439;-77
2021/12/25 12:50:53;;;;;;;6.10;3.23;;;9.70;99.90;;;;;;5014128;28;20455;-75
2021/12/25 12:53:20;;;;;;;3.07;2.83;;;9.70;99.90;;;;;;5029580;28;20415;-76
2021/12/25 12:55:49;;;;;;;2.97;2.77;;;9.70;99.90;;;;;;5030292;28;20424;-76
2021/12/25 12:58:19;;;;;;;3.67;3.27;;;9.70;99.90;;;;;;5027730;28;20461;-77
2021/12/25 13:00:56;;;;;;;4.43;3.43;;;9.70;99.90;;;;;;5027376;28;20558;-78
2021/12/25 13:03:27;;;;;;;3.03;2.70;;;9.70;99.90;;;;;;5028533;28;20417;-78
2021/12/25 13:06:03;;;;;;;7.30;3.03;;;9.60;99.90;;;;;;5027752;28;20486;-80
2021/12/25 13:08:32;;;;;;;3.30;3.00;;;9.60;99.90;;;;;;5028283;28;20434;-77
2021/12/25 13:11:06;;;;;;;3.77;2.53;;;9.50;99.90;;;;;;5029066;28;21012;-77
2021/12/25 13:13:40;;;;;;;3.97;2.63;;;9.50;99.90;;;;;;5028771;28;20442;-78
2021/12/25 13:16:13;;;;;;;2.67;2.47;;;9.50;99.90;;;;;;5029006;28;20423;-79
2021/12/25 13:18:50;;;;;;;3.80;2.60;;;9.50;99.90;;;;;;5027991;28;20804;-76
2021/12/25 13:21:18;;;;;;;3.60;3.30;;;9.50;99.90;;;;;;5025963;28;20478;-76
2021/12/25 13:23:53;;;;;;;4.10;3.00;;;9.40;99.90;;;;;;5026097;28;20430;-77
2021/12/25 13:26:31;;;;;;;1.87;1.73;;;9.40;99.90;;;;;;5025968;28;20423;-76
2021/12/25 13:28:57;;;;;;;2.13;1.90;;;9.40;99.90;;;;;;5027321;28;21110;-77
2021/12/25 13:31:25;;;;;;;2.93;1.70;;;9.40;99.90;;;;;;5027463;28;20445;-77
2021/12/25 13:33:53;;;;;;;3.10;1.70;;;9.30;99.90;;;;;;5026195;28;20408;-77
2021/12/25 13:36:28;;;;;;;2.33;2.20;;;9.30;99.90;;;;;;5027895;28;20417;-81
2021/12/25 13:39:07;;;;;;;2.17;1.97;;;9.30;99.90;;;;;;5027978;28;20480;-77
2021/12/25 13:41:34;;;;;;;1.63;1.53;;;9.20;99.90;;;;;;5026175;28;20416;-76
2021/12/25 13:44:07;;;;;;;1.63;1.53;;;9.20;99.90;;;;;;5027029;28;20439;-76
2021/12/25 13:46:41;;;;;;;1.40;1.30;;;9.20;99.90;;;;;;5027439;28;20404;-76
2021/12/25 13:49:07;;;;;;;4.53;1.73;;;9.30;99.90;;;;;;5027016;28;20455;-75
2021/12/25 13:51:32;;;;;;;1.87;1.23;;;9.20;99.90;;;;;;5026952;28;20449;-77
2021/12/25 13:53:58;;;;;;;2.20;1.60;;;9.20;99.90;;;;;;5025762;28;20423;-78
2021/12/25 13:56:24;;;;;;;2.70;1.40;;;9.20;99.90;;;;;;5027901;28;20217;-78
2021/12/25 13:58:50;;;;;;;2.40;1.30;;;9.20;99.90;;;;;;5026248;28;20693;-77
2021/12/25 14:01:16;;;;;;;1.47;1.30;;;9.10;99.90;;;;;;5026486;28;20427;-76
2021/12/25 14:03:43;;;;;;;1.57;1.47;;;9.20;99.90;;;;;;5029037;28;20179;-76
2021/12/25 14:06:09;;;;;;;1.30;1.20;;;9.20;99.90;;;;;;5025768;28;20962;-77
2021/12/25 14:08:35;;;;;;;2.33;1.60;;;9.20;99.90;;;;;;5027477;28;20432;-78
2021/12/25 14:11:01;;;;;;;1.20;0.90;;;9.20;99.90;;;;;;5027275;28;20646;-76
2021/12/25 14:13:31;;;;;;;1.53;1.43;;;9.20;99.90;;;;;;5030276;28;20231;-76
2021/12/25 14:15:58;;;;;;;1.80;1.30;;;9.20;99.90;;;;;;5030265;28;20481;-76
2021/12/25 14:18:31;;;;;;;1.60;1.33;;;9.20;99.90;;;;;;5031882;28;20470;-78
2021/12/25 14:21:12;;;;;;;1.40;1.00;;;9.20;99.90;;;;;;5040103;28;20474;-79
2021/12/25 14:23:38;;;;;;;2.03;1.47;;;9.10;99.90;;;;;;5043324;28;20772;-79
2021/12/25 14:26:04;;;;;;;1.60;1.47;;;9.10;99.90;;;;;;5042438;28;20920;-79
2021/12/25 14:28:36;;;;;;;2.20;1.47;;;9.10;99.90;;;;;;5024952;28;20227;-79